createdAt,value
2023-01-07T00:01:43.499Z,28.20
2023-01-07T00:04:14.005Z,29.30
2023-01-07T00:06:44.217Z,27.92
2023-01-07T00:09:18.569Z,28.23
2023-01-07T00:14:15.162Z,26.13
2023-01-07T00:16:43.361Z,26.73
2023-01-07T00:19:14.727Z,27.48
2023-01-07T00:21:43.445Z,27.33
2023-01-07T00:24:12.084Z,29.27
2023-01-07T00:26:40.593Z,28.60
2023-01-07T00:29:10.383Z,30.77
2023-01-07T00:31:40.273Z,31.60
2023-01-07T00:34:09.449Z,30.38
2023-01-07T00:36:46.196Z,29.30
2023-01-07T00:39:32.493Z,28.60
2023-01-07T00:42:20.989Z,30.25
2023-01-07T00:44:48.423Z,30.13
2023-01-07T00:47:19.681Z,28.65
2023-01-07T00:50:10.147Z,31.52
2023-01-07T00:52:37.843Z,31.77
2023-01-07T00:55:07.000Z,28.65
2023-01-07T00:57:35.022Z,30.40
2023-01-07T01:00:20.260Z,29.85
2023-01-07T01:02:48.479Z,30.58
2023-01-07T01:05:16.634Z,30.55
2023-01-07T01:07:44.926Z,30.58
2023-01-07T01:10:15.425Z,30.98
2023-01-07T01:12:43.475Z,32.20
2023-01-07T01:15:15.960Z,30.60
2023-01-07T01:17:43.916Z,29.95
2023-01-07T01:20:15.370Z,30.83
2023-01-07T01:22:43.069Z,32.00
2023-01-07T01:25:11.987Z,29.83
2023-01-07T01:27:40.224Z,30.30
2023-01-07T01:30:10.968Z,29.48
2023-01-07T01:32:40.503Z,31.25
2023-01-07T01:35:09.504Z,30.33
2023-01-07T01:37:39.815Z,31.35
2023-01-07T01:40:07.870Z,30.75
2023-01-07T01:42:38.269Z,29.23
2023-01-07T01:45:19.511Z,29.85
2023-01-07T01:48:05.130Z,29.80
2023-01-07T01:50:38.556Z,27.80
2023-01-07T01:53:19.314Z,30.60
2023-01-07T01:56:04.966Z,27.85
2023-01-07T01:58:43.756Z,28.02
2023-01-07T02:01:18.916Z,28.25
2023-01-07T02:03:49.161Z,26.77
2023-01-07T02:06:26.247Z,28.73
2023-01-07T02:08:54.805Z,29.08
2023-01-07T02:11:57.861Z,27.85
2023-01-07T02:14:31.134Z,29.27
2023-01-07T02:17:12.532Z,28.40
2023-01-07T02:20:01.920Z,28.33
2023-01-07T02:22:44.476Z,28.92
2023-01-07T02:25:42.417Z,30.27
2023-01-07T02:28:32.773Z,29.15
2023-01-07T02:31:42.282Z,28.85
2023-01-07T02:34:29.300Z,28.40
2023-01-07T02:37:17.744Z,28.05
2023-01-07T02:39:45.216Z,27.38
2023-01-07T02:42:57.204Z,27.75
2023-01-07T02:45:36.345Z,28.30
2023-01-07T02:48:13.416Z,28.67
2023-01-07T02:50:41.126Z,28.00
2023-01-07T02:53:13.593Z,26.27
2023-01-07T02:55:57.810Z,28.48
2023-01-07T02:58:44.281Z,27.00
2023-01-07T03:01:31.964Z,25.40
2023-01-07T03:04:02.390Z,26.65
2023-01-07T03:06:41.868Z,26.13
2023-01-07T03:09:25.469Z,27.05
2023-01-07T03:12:35.430Z,26.67
2023-01-07T03:15:19.863Z,25.23
2023-01-07T03:17:58.254Z,26.30
2023-01-07T03:20:32.254Z,25.25
2023-01-07T03:23:07.182Z,26.90
2023-01-07T03:25:48.134Z,26.52
2023-01-07T03:28:19.991Z,25.52
2023-01-07T03:30:49.578Z,26.25
2023-01-07T03:33:31.258Z,26.88
2023-01-07T03:36:01.779Z,28.38
2023-01-07T03:38:30.937Z,27.30
2023-01-07T03:41:11.942Z,27.25
2023-01-07T03:43:39.500Z,28.17
2023-01-07T03:46:07.076Z,26.48
2023-01-07T03:48:35.030Z,27.23
2023-01-07T03:51:05.456Z,26.40
2023-01-07T03:53:33.119Z,26.80
2023-01-07T03:56:01.496Z,28.77
2023-01-07T03:58:29.875Z,27.55
2023-01-07T04:00:57.554Z,27.27
2023-01-07T04:03:25.114Z,28.42
2023-01-07T04:05:52.543Z,28.15
2023-01-07T04:08:20.804Z,27.58
2023-01-07T04:10:48.308Z,27.92
2023-01-07T04:13:15.818Z,28.55
2023-01-07T04:15:51.352Z,26.13
2023-01-07T04:18:18.856Z,26.33
2023-01-07T04:20:49.565Z,27.73
2023-01-07T04:23:17.969Z,29.92
2023-01-07T04:25:49.220Z,31.23
2023-01-07T04:28:20.251Z,29.02
2023-01-07T04:30:48.110Z,31.58
2023-01-07T04:33:15.864Z,30.83
2023-01-07T04:35:46.964Z,29.38
2023-01-07T04:38:14.728Z,30.20
2023-01-07T04:40:42.180Z,29.20
2023-01-07T04:43:10.974Z,32.40
2023-01-07T04:45:43.999Z,31.05
2023-01-07T04:48:11.538Z,30.75
2023-01-07T04:50:39.051Z,31.05
2023-01-07T04:53:07.795Z,32.17
2023-01-07T04:55:35.569Z,33.15
2023-01-07T04:58:03.671Z,31.77
2023-01-07T05:00:35.042Z,31.20
2023-01-07T05:03:05.142Z,31.45
2023-01-07T05:05:36.621Z,30.05
2023-01-07T05:08:05.327Z,28.73
2023-01-07T05:10:35.164Z,30.23
2023-01-07T05:13:06.803Z,31.27
2023-01-07T05:15:35.601Z,30.45
2023-01-07T05:18:03.152Z,31.25
2023-01-07T05:20:34.775Z,31.15
2023-01-07T05:23:02.311Z,33.05
2023-01-07T05:25:30.110Z,30.42
2023-01-07T05:27:58.249Z,30.70
2023-01-07T05:30:26.316Z,31.13
2023-01-07T05:32:54.136Z,31.65
2023-01-07T05:35:27.625Z,33.45
2023-01-07T05:37:55.589Z,31.58
2023-01-07T05:40:28.473Z,35.10
2023-01-07T05:43:05.470Z,32.28
2023-01-07T05:45:36.569Z,33.03
2023-01-07T05:48:04.241Z,32.55
2023-01-07T05:50:31.677Z,33.85
2023-01-07T05:53:00.915Z,31.63
2023-01-07T05:55:28.567Z,34.35
2023-01-07T05:57:56.208Z,32.42
2023-01-07T06:00:24.015Z,32.90
2023-01-07T06:02:51.435Z,32.50
2023-01-07T06:05:26.222Z,30.58
2023-01-07T06:07:55.556Z,30.90
2023-01-07T06:10:23.057Z,33.75
2023-01-07T06:12:51.415Z,33.58
2023-01-07T06:15:47.283Z,33.17
2023-01-07T06:18:19.053Z,35.92
2023-01-07T06:20:49.404Z,30.73
2023-01-07T06:29:20.823Z,31.02
2023-01-07T06:31:56.109Z,31.70
2023-01-07T06:34:23.918Z,32.30
2023-01-07T06:36:51.793Z,34.15
2023-01-07T06:39:19.848Z,32.15
2023-01-07T06:42:50.058Z,33.33
2023-01-07T06:49:51.999Z,31.50
2023-01-07T09:56:25.935Z,19.50
2023-01-07T10:55:20.103Z,23.92
2023-01-07T10:57:56.124Z,24.13
2023-01-07T11:00:28.885Z,23.48
2023-01-07T11:03:03.895Z,23.77
2023-01-07T11:05:59.727Z,24.30
2023-01-07T11:08:43.577Z,24.02
2023-01-07T11:11:34.989Z,25.77
2023-01-07T11:17:51.932Z,29.10
2023-01-07T11:20:56.282Z,28.88
2023-01-07T11:23:52.330Z,28.83
2023-01-07T11:26:49.214Z,26.63
2023-01-07T11:29:31.081Z,25.95
2023-01-07T11:34:58.904Z,26.45
2023-01-07T11:37:35.539Z,27.35
2023-01-07T11:40:28.913Z,26.75
2023-01-07T11:43:23.640Z,28.38
2023-01-07T11:46:21.343Z,25.88
2023-01-07T11:48:58.534Z,25.20
2023-01-07T11:51:26.854Z,24.80
2023-01-07T11:53:59.308Z,24.73
2023-01-07T11:56:33.730Z,26.73
2023-01-07T11:59:21.337Z,24.52
2023-01-07T12:01:56.459Z,24.77
2023-01-07T12:04:33.685Z,25.73
2023-01-07T12:07:18.629Z,23.25
2023-01-07T12:09:49.582Z,23.83
2023-01-07T12:12:41.660Z,22.77
2023-01-07T12:15:27.083Z,20.25
2023-01-07T12:18:09.408Z,18.45
2023-01-07T12:21:16.872Z,21.58
2023-01-07T12:24:02.559Z,18.40
2023-01-07T12:26:53.876Z,18.40
2023-01-07T12:29:38.946Z,19.48
2023-01-07T12:32:34.362Z,18.90
2023-01-07T12:35:14.223Z,20.52
2023-01-07T12:38:17.154Z,18.67
2023-01-07T12:40:53.011Z,17.52
2023-01-07T13:12:01.980Z,19.35
2023-01-07T13:22:14.569Z,20.95
2023-01-07T14:07:36.478Z,23.95
2023-01-07T14:14:24.939Z,23.95
2023-01-07T14:17:27.442Z,22.17
2023-01-07T14:44:09.525Z,19.65
2023-01-07T14:46:43.376Z,20.55
2023-01-07T14:50:04.658Z,19.75
2023-01-07T14:55:53.327Z,18.95
2023-01-07T15:28:50.485Z,21.80
2023-01-07T15:35:03.909Z,23.07
2023-01-07T15:37:52.313Z,24.23
2023-01-07T15:58:34.764Z,23.03
2023-01-07T16:01:46.997Z,25.25
2023-01-07T16:04:34.808Z,23.23
2023-01-07T16:07:26.678Z,24.15
2023-01-07T16:09:56.102Z,25.77
2023-01-07T16:12:49.790Z,27.50
2023-01-07T16:15:46.389Z,28.08
2023-01-07T16:18:48.341Z,24.52
2023-01-07T16:21:33.610Z,25.58
2023-01-07T16:24:10.070Z,29.77
2023-01-07T16:29:58.236Z,29.77
2023-01-07T16:32:36.556Z,29.63
2023-01-07T16:35:35.219Z,30.00
2023-01-07T16:38:19.194Z,30.25
2023-01-07T16:40:48.700Z,49.47
2023-01-07T16:43:43.140Z,47.80
2023-01-07T16:46:26.586Z,30.43
2023-01-07T16:49:30.197Z,25.92
2023-01-07T16:52:19.542Z,24.83
2023-01-07T17:01:03.914Z,23.52
2023-01-07T17:03:48.614Z,23.38
2023-01-07T17:06:29.915Z,23.27
2023-01-07T17:08:57.990Z,23.33
2023-01-07T17:11:36.789Z,23.40
2023-01-07T17:14:44.686Z,22.35
2023-01-07T17:17:32.415Z,24.73
2023-01-07T17:20:23.524Z,23.65
2023-01-07T17:22:55.145Z,23.65
2023-01-07T17:31:59.103Z,23.95
2023-01-07T20:52:46.561Z,29.67
2023-01-07T20:55:54.036Z,32.28
2023-01-07T23:30:48.119Z,33.23
2023-01-07T23:37:21.643Z,31.40
2023-01-07T23:40:24.539Z,31.77
2023-01-07T23:44:05.338Z,31.83
